Time;durP1;ratioP1;P1;durP2;ratioP2;P2;SDS_P1;SDS_P2;PMS_P1;PMS_P2;Temp;Humidity;BMP_temperature;BMP_pressure;BME280_temperature;BME280_humidity;BME280_pressure;Samples;Min_cycle;Max_cycle;Signal;HPM_P1;HPM_P2
2022/03/20 00:01:06;;;;;;;62.10;33.78;;;;;;;-5.04;66.12;100018.84;10371862;28;20064;-60
2022/03/20 00:06:04;;;;;;;104.57;58.60;;;;;;;-5.41;65.55;99961.25;10371308;28;20061;-60
2022/03/20 00:11:04;;;;;;;67.78;38.08;;;;;;;-5.15;65.35;100007.66;10370454;28;20406;-60
2022/03/20 00:16:03;;;;;;;;;;;;;;;-5.12;66.52;100018.13;10364180;28;20053;-60
2022/03/20 00:21:02;;;;;;;94.30;43.13;;;;;;;-5.16;65.75;100017.66;10330298;28;19953;-60
2022/03/20 00:26:01;;;;;;;82.63;45.33;;;;;;;-5.15;66.30;100014.38;10329439;28;20623;-60
2022/03/20 00:31:00;;;;;;;102.28;52.78;;;;;;;-5.19;67.64;100010.69;10329718;28;20029;-60
2022/03/20 00:35:59;;;;;;;109.80;57.38;;;;;;;-5.21;67.97;100013.78;10329918;28;20021;-60
2022/03/20 00:40:58;;;;;;;139.40;73.65;;;;;;;-5.24;68.69;100001.72;10333963;28;20035;-60
2022/03/20 00:45:57;;;;;;;;;;;;;;;-5.31;68.26;100005.31;10336849;28;20085;-60
2022/03/20 00:50:58;;;;;;;136.98;70.47;;;;;;;-5.78;68.60;99932.38;10333215;28;19944;-60
2022/03/20 00:55:57;;;;;;;166.07;85.30;;;;;;;-5.57;68.57;99972.41;10337117;28;20064;-60
2022/03/20 01:00:56;;;;;;;127.05;67.80;;;;;;;-5.46;69.34;99999.63;10336890;28;20030;-60
2022/03/20 01:05:55;;;;;;;112.88;57.35;;;;;;;-5.73;69.48;99947.25;10336768;28;20164;-60
2022/03/20 01:10:54;;;;;;;;;;;;;;;-5.48;70.14;99996.06;10336306;28;20510;-60
2022/03/20 01:15:53;;;;;;;127.38;66.63;;;;;;;-5.46;70.75;99989.50;10335868;28;20295;-60
2022/03/20 01:20:53;;;;;;;124.90;61.38;;;;;;;-5.40;70.20;99998.44;10332197;28;20091;-60
2022/03/20 01:25:52;;;;;;;66.07;33.47;;;;;;;-5.59;71.49;99996.69;10334877;28;20064;-60
2022/03/20 01:30:51;;;;;;;46.90;26.70;;;;;;;-5.67;70.98;99998.44;10335666;28;20076;-60
2022/03/20 01:35:52;;;;;;;49.00;27.40;;;;;;;-5.72;70.81;99993.69;10334798;28;20487;-60
2022/03/20 01:40:51;;;;;;;49.78;27.63;;;;;;;-6.58;70.02;99844.53;10334539;28;20514;-60
2022/03/20 01:45:50;;;;;;;49.78;28.35;;;;;;;-6.12;69.72;99934.13;10334411;28;20049;-60
2022/03/20 01:50:49;;;;;;;47.95;26.45;;;;;;;-5.85;70.06;99996.59;10329775;28;20041;-60
2022/03/20 01:55:50;;;;;;;52.25;27.13;;;;;;;-6.12;69.72;99954.34;10333858;28;20099;-60
2022/03/20 02:00:49;;;;;;;65.53;32.80;;;;;;;-5.92;70.19;100007.78;10334144;28;20060;-60
2022/03/20 02:05:48;;;;;;;110.90;56.00;;;;;;;-6.08;70.63;100001.94;10333217;28;20038;-60
2022/03/20 02:10:47;;;;;;;;;;;;;;;-6.07;70.48;100003.69;10333955;28;20065;-60
2022/03/20 02:15:46;;;;;;;49.92;27.58;;;;;;;-6.16;70.82;99983.44;10333785;28;19915;-60
2022/03/20 02:20:49;;;;;;;41.15;22.48;;;;;;;-6.07;70.69;100001.19;10329651;28;20057;-60
2022/03/20 02:25:50;;;;;;;45.70;24.20;;;;;;;-6.19;71.04;100002.47;10333024;28;20065;-60
2022/03/20 02:30:49;;;;;;;64.50;35.72;;;;;;;-6.13;71.17;100018.25;10332551;28;20484;-60
2022/03/20 02:35:49;;;;;;;50.35;25.90;;;;;;;-6.32;72.45;100010.44;10332783;28;20410;-60
2022/03/20 02:40:54;;;;;;;54.38;28.10;;;;;;;-6.86;71.93;99949.44;10332297;28;20072;-60
2022/03/20 02:45:54;;;;;;;47.72;28.05;;;;;;;-6.79;71.88;99968.63;10332451;28;20092;-60
2022/03/20 02:50:52;;;;;;;;;;;;;;;-6.47;72.02;100030.00;10329171;28;20061;-60
2022/03/20 02:55:51;;;;;;;41.80;22.53;;;;;;;-6.85;71.52;99948.72;10331762;28;19909;-60
2022/03/20 03:00:52;;;;;;;;;;;;;;;-6.44;72.23;100010.09;10331551;28;20067;-60
2022/03/20 03:05:58;;;;;;;58.53;32.10;;;;;;;-6.60;72.65;99999.16;10331403;28;19960;-60
2022/03/20 03:10:59;;;;;;;70.35;35.38;;;;;;;-6.76;72.96;99974.91;10331258;28;20064;-60
2022/03/20 03:16:00;;;;;;;61.70;33.40;;;;;;;-6.55;73.30;100019.13;10331082;28;20060;-60
2022/03/20 03:20:59;;;;;;;61.40;34.03;;;;;;;-6.56;72.79;100011.38;10329775;28;20064;-60
2022/03/20 03:25:58;;;;;;;98.13;47.70;;;;;;;-7.19;73.26;99915.00;10328735;28;20091;-60
2022/03/20 03:30:58;;;;;;;81.45;43.95;;;;;;;-6.68;73.90;100018.59;10330795;28;20065;-60
2022/03/20 03:35:57;;;;;;;70.03;36.95;;;;;;;-6.67;73.34;100032.09;10330151;28;20061;-60
2022/03/20 03:40:57;;;;;;;61.58;31.70;;;;;;;-6.85;73.21;99996.69;10330928;28;20035;-59
2022/03/20 03:45:56;;;;;;;61.55;29.52;;;;;;;-6.79;73.78;99999.81;10329700;28;20082;-60
2022/03/20 03:50:56;;;;;;;57.10;28.77;;;;;;;-6.66;73.89;100023.81;10330282;28;20068;-60
2022/03/20 03:55:54;;;;;;;;;;;;;;;-6.65;74.05;100018.91;10326093;28;20118;-60
2022/03/20 04:00:53;;;;;;;61.03;31.70;;;;;;;-6.65;73.74;100016.38;10330955;28;19909;-60
2022/03/20 04:05:52;;;;;;;;;;;;;;;-6.66;73.91;100021.28;10329746;28;20044;-60
2022/03/20 04:10:51;;;;;;;60.42;32.58;;;;;;;-6.73;74.23;100008.03;10329735;28;19917;-60
2022/03/20 04:15:50;;;;;;;56.28;27.52;;;;;;;-6.67;74.51;100009.38;10335058;28;20033;-60
2022/03/20 04:20:49;;;;;;;;;;;;;;;-6.60;74.04;100026.94;10337287;28;20140;-60
2022/03/20 04:25:47;;;;;;;45.92;24.88;;;;;;;-6.63;74.40;100039.28;10333858;28;19913;-60
2022/03/20 04:30:48;;;;;;;;;;;;;;;-6.56;73.99;100046.75;10337839;28;20434;-60
2022/03/20 04:35:47;;;;;;;52.22;27.20;;;;;;;-6.61;73.67;100046.25;10337940;28;20378;-60
2022/03/20 04:40:46;;;;;;;;;;;;;;;-6.99;74.84;100040.72;10337519;28;20503;-60
2022/03/20 04:45:46;;;;;;;54.50;27.70;;;;;;;-7.30;74.71;100010.47;10336467;28;19971;-60
2022/03/20 05:01:20;;;;;;;85.00;44.10;;;;;;;-6.99;74.34;100065.06;10336931;28;20065;-60
2022/03/20 05:06:19;;;;;;;108.68;48.53;;;;;;;-6.90;74.63;100067.59;10335933;28;20068;-60
2022/03/20 05:16:36;;;;;;;54.35;29.83;;;;;;;-6.61;74.82;100069.00;10335486;28;20065;-60
2022/03/20 05:21:36;;;;;;;;;;;;;;;-6.51;74.79;100073.34;10336151;28;20029;-60
2022/03/20 05:26:34;;;;;;;64.63;35.77;;;;;;;-6.37;74.71;100073.13;10331598;28;19944;-60
2022/03/20 05:31:34;;;;;;;68.28;38.85;;;;;;;-6.15;74.68;100080.38;10335497;28;20735;-60
2022/03/20 05:36:34;;;;;;;;;;;;;;;-6.02;74.25;100083.41;10334590;28;20423;-60
2022/03/20 05:41:48;;;;;;;68.97;37.58;;;;;;;-6.30;74.40;100002.28;10334292;28;19952;-60
2022/03/20 05:46:51;;;;;;;141.73;78.32;;;;;;;-6.15;73.31;100014.66;10333946;28;20081;-60
2022/03/20 05:51:52;;;;;;;77.57;42.88;;;;;;;-5.56;72.88;100089.66;10334517;28;20064;-60
2022/03/20 06:02:09;;;;;;;95.75;54.85;;;;;;;-5.37;71.89;100085.69;10334280;28;20066;-60
2022/03/20 06:07:08;;;;;;;65.38;37.42;;;;;;;-5.47;71.75;100012.16;10333857;28;20065;-60
2022/03/20 06:12:08;;;;;;;107.30;53.95;;;;;;;-4.86;71.85;100080.50;10332657;28;20061;-60
2022/03/20 06:17:09;;;;;;;77.43;46.88;;;;;;;-4.76;70.61;100069.63;10332857;28;20072;-61
2022/03/20 06:22:08;;;;;;;91.10;51.45;;;;;;;-4.62;69.85;100085.38;10332790;28;20061;-60
2022/03/20 06:27:07;;;;;;;109.97;61.58;;;;;;;-4.51;69.32;100088.03;10332603;28;20040;-60
2022/03/20 06:32:07;;;;;;;115.45;66.63;;;;;;;-4.33;69.76;100096.50;10332566;28;20475;-61
2022/03/20 06:37:06;;;;;;;100.82;58.88;;;;;;;-4.37;69.68;100105.47;10331667;28;20083;-60
2022/03/20 06:42:05;;;;;;;93.95;53.80;;;;;;;-4.34;69.23;100108.31;10332036;28;20033;-61
2022/03/20 06:47:04;;;;;;;85.63;52.70;;;;;;;-4.38;68.97;100069.84;10331555;28;20089;-61
2022/03/20 06:52:03;;;;;;;;;;;;;;;-4.07;69.54;100104.94;10333211;28;20064;-61
2022/03/20 06:57:02;;;;;;;73.85;44.95;;;;;;;-3.88;68.76;100102.50;10327715;28;19956;-61
2022/03/20 07:02:01;;;;;;;71.03;42.95;;;;;;;-3.90;67.65;100062.50;10331898;28;20103;-60
2022/03/20 07:07:01;;;;;;;66.70;43.28;;;;;;;-3.44;67.30;100105.69;10322100;28;20080;-61
2022/03/20 07:12:00;;;;;;;;;;;;;;;-3.19;65.66;100095.25;10328310;28;20071;-61
2022/03/20 07:16:59;;;;;;;70.75;42.03;;;;;;;-3.04;64.53;100093.19;10327957;28;19917;-60
2022/03/20 07:21:58;;;;;;;184.18;98.38;;;;;;;-2.70;64.14;100086.94;10329521;28;20065;-61
2022/03/20 07:32:15;;;;;;;60.60;34.67;;;;;;;-2.21;62.86;100086.16;10331035;28;20069;-60
2022/03/20 07:37:16;;;;;;;158.40;77.57;;;;;;;-1.94;61.29;100076.53;10331660;28;20065;-61
2022/03/20 07:42:15;;;;;;;42.88;23.85;;;;;;;-1.71;59.97;100078.50;10330807;28;20057;-61
2022/03/20 07:47:19;;;;;;;80.38;42.33;;;;;;;-1.57;57.74;100066.94;10331464;28;20085;-61
2022/03/20 07:52:18;;;;;;;22.33;14.90;;;;;;;-1.78;56.40;100013.47;10339549;28;20067;-61
2022/03/20 07:57:18;;;;;;;27.35;17.17;;;;;;;-1.26;57.33;100050.00;10338667;28;20068;-61
2022/03/20 08:02:17;;;;;;;22.58;15.32;;;;;;;-1.13;56.20;100034.06;10338252;28;20080;-60
2022/03/20 08:07:16;;;;;;;183.25;76.50;;;;;;;-1.11;53.76;100010.50;10338741;28;20033;-61
2022/03/20 08:12:15;;;;;;;14.73;9.75;;;;;;;-0.91;51.06;100034.16;10338699;28;20029;-61
2022/03/20 08:17:14;;;;;;;15.77;8.98;;;;;;;-0.76;50.49;100031.97;10337824;28;20077;-60
2022/03/20 08:22:13;;;;;;;14.75;9.52;;;;;;;-0.62;50.09;100009.34;10338012;28;20030;-61
2022/03/20 08:27:12;;;;;;;47.70;28.42;;;;;;;-0.53;50.91;99981.13;10336944;28;20041;-61
2022/03/20 08:32:11;;;;;;;19.75;11.68;;;;;;;-0.09;49.46;100006.63;10337152;28;20443;-61
2022/03/20 08:37:10;;;;;;;15.50;9.43;;;;;;;0.10;48.97;100011.53;10334132;28;20052;-61
2022/03/20 08:42:09;;;;;;;15.65;10.18;;;;;;;0.18;47.62;100007.88;10334975;28;20057;-61
2022/03/20 08:47:08;;;;;;;13.50;9.07;;;;;;;0.27;47.29;99992.38;10335780;28;20054;-61
2022/03/20 08:52:07;;;;;;;15.23;10.45;;;;;;;-0.13;45.42;99915.31;10337009;28;20041;-61
2022/03/20 08:57:08;;;;;;;15.52;8.80;;;;;;;0.27;45.51;99956.63;10336006;28;20072;-61
2022/03/20 09:02:07;;;;;;;13.10;8.40;;;;;;;0.65;44.94;99961.13;10335693;28;20057;-61
2022/03/20 09:07:06;;;;;;;16.33;8.50;;;;;;;0.87;45.00;99959.38;10336463;28;20069;-61
2022/03/20 09:12:05;;;;;;;14.75;9.15;;;;;;;0.91;43.01;99942.56;10336152;28;20100;-61
2022/03/20 09:22:22;;;;;;;15.25;8.55;;;;;;;1.42;43.43;99943.63;10335084;28;20065;-61
2022/03/20 09:27:22;;;;;;;14.80;8.85;;;;;;;1.18;41.57;99897.63;10334763;28;20029;-61
2022/03/20 09:32:21;;;;;;;12.52;7.43;;;;;;;1.55;40.80;99910.41;10335184;28;20052;-61
2022/03/20 09:37:20;;;;;;;18.10;10.93;;;;;;;1.61;41.98;99912.53;10334639;28;20048;-61
2022/03/20 09:42:20;;;;;;;11.80;7.05;;;;;;;1.73;41.61;99913.38;10335037;28;20065;-61
2022/03/20 09:47:19;;;;;;;12.00;6.63;;;;;;;1.19;38.36;99806.47;10334663;28;20087;-62
2022/03/20 09:52:19;;;;;;;15.18;8.45;;;;;;;1.71;38.19;99851.81;10331751;28;20064;-61
2022/03/20 09:57:18;;;;;;;141.63;52.22;;;;;;;2.27;39.62;99886.25;10326828;28;20747;-62
2022/03/20 10:02:17;;;;;;;31.88;15.63;;;;;;;2.63;40.26;99874.06;10331093;28;20418;-62
2022/03/20 10:07:28;;;;;;;63.00;30.02;;;;;;;2.96;38.09;99881.34;10332014;28;20128;-62
2022/03/20 10:12:32;;;;;;;11.52;6.95;;;;;;;2.99;36.84;99872.97;10332629;28;20068;-62
2022/03/20 10:17:32;;;;;;;90.95;38.50;;;;;;;3.01;35.08;99856.88;10333637;28;20069;-62
2022/03/20 10:22:32;;;;;;;16.27;9.52;;;;;;;2.80;35.74;99856.41;10332831;28;20088;-62
2022/03/20 10:27:31;;;;;;;14.40;7.70;;;;;;;2.55;35.87;99838.56;10333100;28;20069;-62
2022/03/20 10:32:31;;;;;;;14.93;7.90;;;;;;;2.77;34.08;99853.66;10333284;28;20108;-62
2022/03/20 10:37:55;;;;;;;14.77;9.57;;;;;;;2.79;33.17;99866.56;10330763;28;20064;-62
2022/03/20 10:43:15;;;;;;;10.85;5.90;;;;;;;2.85;32.54;99854.13;10332226;28;20484;-63
2022/03/20 10:48:16;;;;;;;13.70;7.68;;;;;;;3.08;33.34;99847.00;10332069;28;20096;-63
2022/03/20 10:53:15;;;;;;;15.70;9.77;;;;;;;3.20;32.85;99848.63;10331863;28;20069;-62
2022/03/20 10:58:22;;;;;;;17.95;12.10;;;;;;;3.26;33.24;99843.03;10331544;28;20112;-62
2022/03/20 11:03:22;;;;;;;16.23;9.75;;;;;;;3.39;32.54;99842.06;10330460;28;20550;-63
2022/03/20 11:08:23;;;;;;;10.70;6.63;;;;;;;3.34;31.63;99776.75;10331738;28;20057;-62
2022/03/20 11:13:22;;;;;;;16.55;10.73;;;;;;;3.44;32.40;99820.13;10330894;28;20528;-62
2022/03/20 11:18:25;;;;;;;11.35;7.60;;;;;;;2.67;32.17;99681.22;10331254;28;20067;-62
2022/03/20 11:23:26;;;;;;;10.63;6.50;;;;;;;3.49;31.74;99815.28;10331256;28;20064;-62
2022/03/20 11:28:25;;;;;;;14.70;8.15;;;;;;;3.63;31.81;99809.28;10331149;28;20502;-62
2022/03/20 11:33:25;;;;;;;13.77;8.93;;;;;;;3.35;32.09;99761.44;10331496;28;20057;-63
2022/03/20 11:38:25;;;;;;;15.10;8.05;;;;;;;3.40;31.79;99765.19;10331182;28;20057;-63
2022/03/20 11:43:24;;;;;;;10.70;7.10;;;;;;;3.59;30.82;99797.09;10330321;28;20064;-62
2022/03/20 11:48:23;;;;;;;15.02;8.32;;;;;;;3.65;31.49;99788.03;10330575;28;20049;-62
2022/03/20 11:53:28;;;;;;;12.00;6.97;;;;;;;3.69;32.44;99783.97;10329758;28;20118;-62
2022/03/20 11:58:27;;;;;;;16.13;9.00;;;;;;;3.97;32.87;99777.91;10329929;28;20510;-62
2022/03/20 12:03:39;;;;;;;15.40;9.50;;;;;;;4.01;32.37;99772.09;10330350;28;20495;-62
2022/03/20 12:08:56;;;;;;;16.65;11.75;;;;;;;4.06;31.67;99768.16;10330576;28;20073;-62
2022/03/20 12:14:23;;;;;;;12.90;8.18;;;;;;;4.16;31.13;99765.28;10330168;28;20045;-61
2022/03/20 12:19:34;;;;;;;11.35;7.07;;;;;;;4.16;31.19;99742.16;10329635;28;20065;-62
2022/03/20 12:24:36;;;;;;;13.15;7.10;;;;;;;4.31;30.72;99747.25;10329609;28;20088;-62
2022/03/20 12:29:35;;;;;;;12.77;8.20;;;;;;;4.15;30.62;99686.44;10330465;28;20060;-61
2022/03/20 12:34:34;;;;;;;12.75;7.70;;;;;;;4.47;29.73;99723.31;10331066;28;20071;-62
2022/03/20 12:39:57;;;;;;;13.85;8.00;;;;;;;4.65;28.45;99728.56;10337508;28;20072;-62
2022/03/20 12:44:56;;;;;;;13.13;7.80;;;;;;;4.69;28.12;99721.09;10337338;28;20088;-61
2022/03/20 12:50:00;;;;;;;15.32;9.60;;;;;;;4.70;28.51;99717.72;10325774;28;20068;-62
2022/03/20 12:55:09;;;;;;;9.70;6.07;;;;;;;4.83;27.68;99700.34;10296235;28;20073;-62
2022/03/20 13:00:20;;;;;;;14.48;7.57;;;;;;;4.93;28.56;99698.38;10327040;28;20068;-62
2022/03/20 13:05:19;;;;;;;15.07;8.95;;;;;;;4.87;28.22;99694.59;10336112;28;20069;-61
2022/03/20 13:10:19;;;;;;;21.92;12.32;;;;;;;5.00;28.12;99697.03;10336076;28;20080;-62
2022/03/20 13:15:23;;;;;;;16.85;11.05;;;;;;;5.17;29.20;99685.03;10335017;28;20565;-62
2022/03/20 13:20:25;;;;;;;19.80;12.27;;;;;;;5.40;28.49;99685.34;10335838;28;20076;-61
2022/03/20 13:25:26;;;;;;;17.33;10.50;;;;;;;5.38;28.75;99674.94;10335503;28;20064;-62
2022/03/20 13:30:35;;;;;;;16.33;9.93;;;;;;;5.20;27.37;99680.03;10335784;28;20072;-61
2022/03/20 13:35:34;;;;;;;9.07;6.10;;;;;;;5.15;26.86;99658.34;10332292;28;20061;-61
2022/03/20 13:40:33;;;;;;;10.70;6.43;;;;;;;5.29;26.60;99659.91;10331071;28;20091;-60
2022/03/20 13:45:33;;;;;;;;;;;;;;;5.41;25.44;99643.31;10328710;28;20077;-60
2022/03/20 13:50:32;;;;;;;17.33;10.10;;;;;;;5.03;25.63;99593.38;10333928;28;19956;-60
2022/03/20 13:55:34;;;;;;;;;;;;;;;5.20;25.60;99648.28;10333518;28;20061;-60
2022/03/20 14:00:35;;;;;;;10.50;6.50;;;;;;;5.26;25.32;99652.06;10333884;28;20378;-60
2022/03/20 14:05:35;;;;;;;11.30;6.78;;;;;;;5.23;24.85;99651.03;10334378;28;20455;-60
2022/03/20 14:10:51;;;;;;;16.15;8.75;;;;;;;5.48;26.21;99637.66;10335145;28;20068;-60
2022/03/20 14:16:00;;;;;;;15.68;10.30;;;;;;;5.50;25.42;99639.50;10331034;28;20057;-60
2022/03/20 14:21:13;;;;;;;12.20;7.33;;;;;;;5.24;25.04;99625.34;10332844;28;20069;-60
2022/03/20 14:26:21;;;;;;;12.80;7.32;;;;;;;5.23;25.73;99603.00;10333150;28;20067;-60
2022/03/20 14:42:01;;;;;;;14.32;9.30;;;;;;;5.51;25.28;99623.28;10333139;28;20065;-60
2022/03/20 14:47:05;;;;;;;;;;;;;;;5.46;25.19;99621.25;10332382;28;20083;-60
2022/03/20 14:52:05;;;;;;;15.88;10.35;;;;;;;5.36;25.98;99625.06;10333235;28;19949;-60
2022/03/20 14:57:06;;;;;;;14.90;9.75;;;;;;;5.22;25.27;99620.94;10331722;28;20068;-60
2022/03/20 15:02:06;;;;;;;17.95;10.13;;;;;;;5.08;25.35;99615.09;10329395;28;20102;-61
2022/03/20 15:07:06;;;;;;;10.05;6.32;;;;;;;4.87;25.50;99622.56;10277118;28;20084;-60
2022/03/20 15:12:06;;;;;;;14.05;7.65;;;;;;;4.78;26.43;99627.22;10331680;28;20057;-60
2022/03/20 15:17:07;;;;;;;14.75;8.88;;;;;;;4.70;27.15;99603.69;10330966;28;20068;-60
2022/03/20 15:22:06;;;;;;;12.57;7.85;;;;;;;4.56;27.15;99602.97;10330829;28;20060;-59
2022/03/20 15:27:05;;;;;;;16.58;9.95;;;;;;;4.63;27.68;99632.47;10331156;28;20044;-60
2022/03/20 15:32:04;;;;;;;13.85;8.82;;;;;;;4.37;28.08;99628.50;10329806;28;20075;-59
2022/03/20 15:37:03;;;;;;;14.52;9.55;;;;;;;4.01;28.77;99592.28;10330377;28;20061;-60
2022/03/20 15:42:03;;;;;;;20.63;12.80;;;;;;;4.08;29.55;99615.84;10327943;28;20514;-60
2022/03/20 15:47:02;;;;;;;15.02;8.15;;;;;;;3.58;29.39;99580.53;10327502;28;20477;-59
2022/03/20 15:52:02;;;;;;;14.10;8.27;;;;;;;3.78;29.10;99635.59;10328590;28;20060;-60
2022/03/20 15:57:01;;;;;;;13.05;8.25;;;;;;;3.74;29.58;99643.03;10330579;28;20134;-60
2022/03/20 16:02:00;;;;;;;16.35;10.43;;;;;;;3.69;30.62;99647.03;10329923;28;20068;-60
2022/03/20 16:06:59;;;;;;;18.00;10.35;;;;;;;3.58;30.56;99654.09;10303907;28;20058;-60
2022/03/20 16:11:58;;;;;;;13.30;8.40;;;;;;;3.53;30.51;99650.41;10351264;28;20065;-62
2022/03/20 16:16:57;;;;;;;23.67;13.85;;;;;;;3.47;30.60;99665.44;10338695;28;20064;-61
2022/03/20 16:21:56;;;;;;;23.30;13.38;;;;;;;3.13;30.65;99610.50;10337475;28;20415;-60
2022/03/20 16:32:13;;;;;;;21.83;12.82;;;;;;;3.15;31.46;99670.47;10337718;28;20064;-59
2022/03/20 16:37:12;;;;;;;19.02;11.23;;;;;;;3.11;31.13;99665.94;10314427;28;20064;-60
2022/03/20 16:42:11;;;;;;;28.58;17.65;;;;;;;2.58;31.89;99582.50;10336043;28;20652;-60
2022/03/20 16:47:11;;;;;;;27.30;17.30;;;;;;;2.95;31.98;99673.50;10336866;28;20111;-59
2022/03/20 16:52:09;;;;;;;;;;;;;;;2.84;32.09;99679.66;10335117;28;20073;-60
2022/03/20 16:57:08;;;;;;;34.75;19.88;;;;;;;2.54;32.40;99642.03;10296057;28;19917;-59
2022/03/20 17:02:07;;;;;;;45.38;27.90;;;;;;;1.96;33.32;99557.38;10296300;28;20451;-60
2022/03/20 17:07:07;;;;;;;44.97;29.55;;;;;;;2.61;33.20;99694.56;10295428;28;20034;-60
2022/03/20 17:12:07;;;;;;;45.85;27.15;;;;;;;2.36;33.39;99684.44;10295905;28;20065;-60
2022/03/20 17:17:06;;;;;;;39.97;22.98;;;;;;;2.25;32.96;99704.25;10319975;28;20045;-60
2022/03/20 17:22:05;;;;;;;38.13;22.38;;;;;;;2.14;33.55;99701.03;10334824;28;20076;-60
2022/03/20 17:27:04;;;;;;;36.40;22.90;;;;;;;2.13;33.95;99703.50;10335321;28;20061;-60
2022/03/20 17:32:03;;;;;;;32.78;20.60;;;;;;;1.68;34.61;99656.25;10335932;28;20061;-61
2022/03/20 17:37:03;;;;;;;42.83;25.55;;;;;;;2.00;34.48;99706.03;10334830;28;20053;-60
2022/03/20 17:42:04;;;;;;;40.25;25.80;;;;;;;1.82;34.73;99681.06;10334879;28;20503;-61
2022/03/20 17:47:03;;;;;;;47.72;27.77;;;;;;;1.65;34.98;99662.06;10335181;28;20076;-62
2022/03/20 17:52:02;;;;;;;;;;;;;;;1.91;35.20;99716.59;10333471;28;20056;-60
2022/03/20 17:57:01;;;;;;;53.25;33.28;;;;;;;1.81;35.21;99710.00;10334277;28;19963;-60
2022/03/20 18:12:35;;;;;;;39.28;26.02;;;;;;;1.54;35.99;99709.06;10333448;28;20065;-60
2022/03/20 18:17:34;;;;;;;61.58;39.50;;;;;;;1.45;36.66;99708.47;10333149;28;20084;-60
2022/03/20 18:22:38;;;;;;;89.43;47.40;;;;;;;1.35;37.25;99721.44;10332356;28;20043;-60
2022/03/20 18:27:39;;;;;;;131.55;66.30;;;;;;;1.21;37.96;99717.94;10332736;28;20471;-60
2022/03/20 18:32:39;;;;;;;132.73;66.68;;;;;;;1.06;38.57;99723.81;10326263;28;20053;-60
2022/03/20 18:37:39;;;;;;;159.70;84.60;;;;;;;0.93;39.49;99730.53;10332526;28;20056;-60
2022/03/20 18:42:42;;;;;;;129.50;75.20;;;;;;;0.80;40.28;99739.91;10332106;28;20068;-60
2022/03/20 18:47:42;;;;;;;126.93;76.18;;;;;;;0.65;41.02;99738.84;10332139;28;20526;-60
2022/03/20 18:52:44;;;;;;;97.10;56.63;;;;;;;0.11;41.61;99671.22;10331957;28;20057;-60
2022/03/20 18:57:43;;;;;;;80.63;50.97;;;;;;;0.40;41.79;99737.09;10308598;28;20448;-60
2022/03/20 19:02:44;;;;;;;62.45;38.25;;;;;;;-0.20;41.95;99655.38;10291255;28;20057;-60
2022/03/20 19:07:45;;;;;;;108.57;60.70;;;;;;;0.04;43.28;99718.38;10291012;28;20482;-60
2022/03/20 19:12:47;;;;;;;114.28;61.33;;;;;;;0.08;43.57;99746.66;10290572;28;20409;-60
2022/03/20 19:17:48;;;;;;;64.57;41.60;;;;;;;-0.17;44.55;99755.09;10319841;28;20056;-60
2022/03/20 19:22:50;;;;;;;77.07;48.80;;;;;;;-0.26;44.33;99749.31;10331753;28;20049;-62
2022/03/20 19:27:50;;;;;;;73.00;45.10;;;;;;;-0.34;45.30;99750.44;10331496;28;20061;-62
2022/03/20 19:32:49;;;;;;;78.82;46.63;;;;;;;-0.76;45.31;99692.91;10330312;28;20068;-62
2022/03/20 19:43:06;;;;;;;531.80;209.05;;;;;;;-0.61;45.73;99740.81;10330864;28;20069;-59
2022/03/20 19:48:05;;;;;;;;;;;;;;;-0.68;46.27;99738.59;10330146;28;20107;-61
2022/03/20 19:53:05;;;;;;;190.85;83.70;;;;;;;-1.07;46.87;99675.28;10330464;28;19960;-61
2022/03/20 19:58:05;;;;;;;123.68;62.58;;;;;;;-0.75;47.42;99732.91;10330799;28;20060;-61
2022/03/20 20:03:04;;;;;;;327.08;146.50;;;;;;;-1.13;47.70;99685.03;10333640;28;20472;-61
2022/03/20 20:08:03;;;;;;;113.97;60.22;;;;;;;-0.90;48.15;99740.31;10334072;28;20068;-61
2022/03/20 20:18:20;;;;;;;52.17;28.75;;;;;;;-1.01;49.01;99734.38;10332547;28;20057;-61
2022/03/20 20:23:20;;;;;;;54.42;29.17;;;;;;;-1.26;48.87;99694.31;10333582;28;20034;-61
2022/03/20 20:28:20;;;;;;;55.75;32.10;;;;;;;-1.09;49.22;99727.81;10332549;28;20061;-61
2022/03/20 20:33:18;;;;;;;56.25;32.78;;;;;;;-1.25;49.55;99705.38;10332560;28;20475;-61
2022/03/20 20:38:17;;;;;;;163.40;79.53;;;;;;;-1.35;49.62;99702.88;10333109;28;20442;-61
2022/03/20 20:43:16;;;;;;;72.20;41.50;;;;;;;-1.26;49.43;99722.31;10332900;28;20028;-61
2022/03/20 20:48:15;;;;;;;53.95;29.70;;;;;;;-1.35;50.30;99721.63;10333109;28;20034;-61
2022/03/20 20:53:14;;;;;;;57.25;31.48;;;;;;;-1.33;50.40;99717.53;10332913;28;20470;-61
2022/03/20 20:58:13;;;;;;;72.28;38.25;;;;;;;-1.41;51.28;99712.59;10337338;28;20045;-61
2022/03/20 21:03:12;;;;;;;86.63;49.05;;;;;;;-1.47;50.86;99728.28;10336731;28;20072;-61
2022/03/20 21:13:31;;;;;;;150.07;81.95;;;;;;;-1.70;53.40;99718.88;10337036;28;20092;-61
2022/03/20 21:18:31;;;;;;;153.23;85.82;;;;;;;-1.73;54.09;99719.47;10335211;28;20471;-61
2022/03/20 21:23:32;;;;;;;92.43;52.05;;;;;;;-1.76;53.97;99721.78;10335630;28;20056;-61
2022/03/20 21:28:31;;;;;;;64.38;39.58;;;;;;;-1.85;53.36;99709.22;10335974;28;20459;-61
2022/03/20 21:33:30;;;;;;;78.40;46.78;;;;;;;-1.89;53.82;99717.41;10334859;28;20553;-61
2022/03/20 21:38:29;;;;;;;78.32;46.70;;;;;;;-1.97;55.02;99713.34;10334853;28;20064;-61
2022/03/20 21:43:30;;;;;;;68.28;41.78;;;;;;;-2.07;55.16;99705.75;10335240;28;20068;-61
2022/03/20 21:48:29;;;;;;;85.45;47.13;;;;;;;-2.23;55.28;99673.13;10334192;28;20078;-61
2022/03/20 21:53:29;;;;;;;84.07;46.85;;;;;;;-2.40;55.50;99658.19;10335488;28;20164;-61
2022/03/20 21:58:28;;;;;;;97.70;55.38;;;;;;;-2.20;55.50;99691.16;10334547;28;20033;-61
2022/03/20 22:03:27;;;;;;;99.63;56.65;;;;;;;-2.22;55.79;99694.34;10333617;28;20033;-62
2022/03/20 22:08:26;;;;;;;99.88;58.00;;;;;;;-2.58;56.15;99637.25;10333284;28;20036;-62
2022/03/20 22:13:25;;;;;;;97.03;57.53;;;;;;;-2.30;55.74;99681.03;10333169;28;20065;-62
2022/03/20 22:18:24;;;;;;;;;;;;;;;-2.28;56.54;99689.66;10333240;28;20061;-62
2022/03/20 22:23:23;;;;;;;98.50;56.70;;;;;;;-2.33;56.75;99674.03;10333175;28;20035;-62
2022/03/20 22:28:22;;;;;;;93.93;52.78;;;;;;;-2.23;57.03;99683.28;10333507;28;20044;-62
2022/03/20 22:33:21;;;;;;;89.22;51.40;;;;;;;-2.22;56.92;99682.50;10332754;28;20033;-60
2022/03/20 22:38:26;;;;;;;97.28;54.85;;;;;;;-2.24;57.13;99671.34;10332193;28;20057;-61
2022/03/20 22:43:26;;;;;;;155.50;87.35;;;;;;;-2.28;57.09;99670.22;10332915;28;20468;-62
2022/03/20 22:53:43;;;;;;;107.05;58.25;;;;;;;-2.38;58.45;99666.78;10332222;28;20091;-62
2022/03/20 22:58:42;;;;;;;86.25;49.92;;;;;;;-2.43;59.52;99663.00;10333144;28;20057;-62
2022/03/20 23:03:41;;;;;;;156.80;75.03;;;;;;;-2.53;59.51;99652.09;10335170;28;20395;-62
2022/03/20 23:08:40;;;;;;;91.40;49.15;;;;;;;-2.53;59.68;99664.78;10335036;28;20065;-62
2022/03/20 23:13:40;;;;;;;93.68;50.65;;;;;;;-2.60;60.07;99648.94;10331297;28;20403;-61
2022/03/20 23:18:42;;;;;;;;;;;;;;;-2.61;60.33;99658.22;10331313;28;20444;-61
2022/03/20 23:23:41;;;;;;;82.75;45.08;;;;;;;-2.61;60.00;99655.69;10333224;28;19952;-61
2022/03/20 23:28:42;;;;;;;71.22;41.65;;;;;;;-2.61;60.33;99642.97;10334599;28;20049;-62
2022/03/20 23:33:42;;;;;;;85.50;47.85;;;;;;;-2.71;60.94;99645.50;10333825;28;20064;-61
2022/03/20 23:38:41;;;;;;;92.43;52.70;;;;;;;-2.66;61.12;99649.34;10333976;28;20517;-62
2022/03/20 23:43:40;;;;;;;93.25;50.83;;;;;;;-2.73;61.12;99647.06;10334284;28;20036;-62
2022/03/20 23:48:40;;;;;;;86.18;46.25;;;;;;;-2.78;61.13;99643.22;10333287;28;20503;-62
2022/03/20 23:53:39;;;;;;;86.35;47.78;;;;;;;-3.01;61.16;99603.28;10333696;28;20065;-61
2022/03/20 23:58:39;;;;;;;74.57;43.83;;;;;;;-2.71;61.19;99640.44;10333233;28;20064;-61
